• Join FlightAware (Why Join?)
  • Login
  • US Flag 
03:31PM EDT


 

Airport Tracker/Info


-or-


 

Live Flight TrackerFlight Track Log ✈ N93XP ✈ 20-May-2013 ✈ KMDW - KDET

Flight Track Log - Related Links

Times and Time Zones

All times are in EDT time to prevent confusion due to time zone crossing. See the N93XP flight status page for this flight to view local times or setup timezone preferences in your user account.

Time Position Orientation Groundspeed Altitude Reporting Facility
EDT Latitude Longitude Course Direction KTS MPH feet Rate Location/Type
05:34PM 41.7667 -87.7667 312° West 161 185 1,600  Level Chicago TRACON
05:35PM 41.8000 -87.8167 312° West 238 274 2,900 660 Climbing Chicago TRACON
05:36PM 41.8333 -87.7333 62° Northeast 285 328 3,000 660 Climbing Chicago TRACON
05:37PM 41.8167 -87.6500 105° East 288 331 4,300 1,260 Climbing Chicago TRACON
05:38PM 41.8175 -87.6281 87° East 283 326 4,600 420 Climbing Chicago Center
05:39PM 41.7917 -87.5106 106° East 285 328 4,900 600 Climbing Chicago Center
05:40PM 41.7842 -87.3994 95° East 297 342 5,900 1,500 Climbing Chicago Center
05:41PM 41.7764 -87.2850 95° East 305 351 8,000 2,040 Climbing Chicago Center
05:42PM 41.7683 -87.1669 95° East 314 361 10,200 2,100 Climbing Chicago Center
05:43PM 41.7608 -87.0394 94° East 335 386 12,400 1,980 Climbing Chicago Center
05:44PM 41.7625 -86.9042 89° East 358 412 14,300 1,800 Climbing Chicago Center
05:45PM 41.7642 -86.7344 89° East 377 434 16,200 1,680 Climbing Chicago Center
05:46PM 41.7653 -86.5772 89° East 397 457 17,800 1,320 Climbing Chicago Center
05:47PM 41.7661 -86.4222 90° East 411 473 19,000 540 Climbing Chicago Center
05:48PM 41.7653 -86.2564 90° East 437 503 19,000  Level Chicago Center
05:49PM 41.7594 -86.0886 93° East 449 517 19,000  Level Chicago Center
05:50PM 41.7947 -85.9206 74° East 463 533 19,000  Level Chicago Center
05:51PM 41.8400 -85.7547 70° East 469 540 19,000  Level Chicago Center
05:52PM 41.9164 -85.5722 61° Northeast 462 532 19,000  Level Chicago Center
05:53PM 41.9819 -85.4217 60° Northeast 461 531 19,000 -180 Level Chicago Center
05:54PM 42.0375 -85.2892 61° Northeast 461 531 18,700 -780 Descending Chicago Center
05:55PM 42.1092 -85.1133 61° Northeast 455 524 17,400 -840 Descending Chicago Center
05:56PM 42.1642 -84.9617 64° Northeast 452 520 17,000 -240 Descending Chicago Center
05:57PM 42.2144 -84.8064 66° East 453 521 17,000 -600 Level Chicago Center
05:58PM 42.2764 -84.6578 61° Northeast 458 527 15,800 -1,560 Descending Chicago Center
05:59PM 42.3567 -84.5347 49° Northeast 442 509 13,800 -1,920 Descending Chicago Center
06:00PM 42.4483 -84.3972 48° Northeast 414 476 11,900 -1,560 Descending Chicago Center
06:01PM 42.5206 -84.2903 47° Northeast 395 455 10,600 -1,200 Descending Chicago Center
06:02PM 42.5500 -84.2447 49° Northeast 347 399 10,200 -1,080 Descending Cleveland Center
06:03PM 42.6111 -84.1522 48° Northeast 325 374 9,100 -1,080 Descending Cleveland Center
06:04PM 42.6703 -84.0625 48° Northeast 322 371 8,100 -960 Descending Cleveland Center
06:05PM 42.6897 -83.9644 75° East 280 322 7,200 -1,020 Descending Cleveland Center
06:06PM 42.7100 -83.8469 77° East 292 336 6,100 -1,080 Descending Cleveland Center
06:07PM 42.7294 -83.7406 76° East 297 342 5,100 -540 Descending Cleveland Center
06:08PM 42.7517 -83.6172 76° East 291 335 5,000 -60 Descending Cleveland Center
06:09PM 42.7711 -83.5136 76° East 292 336 5,000  Level Cleveland Center
06:10PM 42.7903 -83.4069 76° East 297 342 5,000 -360 Level Cleveland Center
06:11PM 42.7594 -83.3036 112° Southeast 274 315 4,300 -1,020 Descending Cleveland Center
06:12PM 42.7300 -83.2261 117° Southeast 248 285 3,000 -720 Descending Cleveland Center
06:13PM 42.6678 -83.2064 167° South 196 226 3,000  Level Cleveland Center
06:14PM 42.6122 -83.1844 164° South 214 246 3,000  Level Cleveland Center
06:15PM 42.5483 -83.1422 154° Southeast 228 262 3,000 -180 Level Cleveland Center
06:16PM 42.5014 -83.1039 149° Southeast 185 213 2,700 -540 Descending Cleveland Center
06:17PM 42.4667 -83.0658 141° Southeast 141 162 1,900 -780 Descending Cleveland Center
06:18PM 42.4381 -83.0394 146° Southeast 130 150 1,200 -720 Descending Cleveland Center